Time;durP1;ratioP1;P1;durP2;ratioP2;P2;SDS_P1;SDS_P2;PMS_P1;PMS_P2;Temp;Humidity;BMP_temperature;BMP_pressure;BME280_temperature;BME280_humidity;BME280_pressure;Samples;Min_cycle;Max_cycle;Signal;HPM_P1;HPM_P2
2022/06/03 00:00:24;;;;;;;3.97;3.00;;;;;;;9.62;67.69;101216.53;5001403;28;20037;-75
2022/06/03 00:03:12;;;;;;;4.57;3.15;;;;;;;9.59;68.50;101217.41;5001507;28;20104;-75
2022/06/03 00:05:43;;;;;;;4.05;2.67;;;;;;;9.54;68.42;101213.84;5001573;28;20041;-75
2022/06/03 00:08:37;;;;;;;4.50;2.73;;;;;;;9.42;69.64;101216.34;4998633;28;20092;-75
2022/06/03 00:11:29;;;;;;;3.75;2.88;;;;;;;9.35;70.32;101214.50;4999378;28;20672;-75
2022/06/03 00:14:38;;;;;;;4.80;3.55;;;;;;;9.38;69.60;101215.44;5004389;28;20121;-75
2022/06/03 00:17:32;;;;;;;4.68;3.35;;;;;;;9.35;69.93;101214.50;5009925;28;20030;-75
2022/06/03 00:20:10;;;;;;;4.78;3.25;;;;;;;9.31;70.97;101218.00;5000567;28;20038;-75
2022/06/03 00:22:51;;;;;;;5.68;3.50;;;;;;;9.31;69.76;101221.50;5005275;28;20130;-75
2022/06/03 00:25:45;;;;;;;4.20;3.28;;;;;;;9.24;70.08;101227.56;5020072;28;20057;-75
2022/06/03 00:28:28;;;;;;;4.88;3.00;;;;;;;9.17;70.71;101223.13;5005012;28;20042;-75
2022/06/03 00:31:24;;;;;;;5.43;3.38;;;;;;;9.13;72.07;101224.84;5003994;28;20521;-75
2022/06/03 00:34:19;;;;;;;5.75;4.22;;;;;;;9.11;71.84;101226.56;5005371;28;20046;-75
2022/06/03 00:37:02;;;;;;;6.32;5.18;;;;;;;9.09;73.35;101228.31;5020851;28;20551;-75
2022/06/03 00:40:01;;;;;;;5.70;4.32;;;;;;;9.11;72.58;101238.84;5020363;28;20073;-75
2022/06/03 00:42:54;;;;;;;5.95;4.00;;;;;;;9.06;72.37;101228.25;4979357;28;20494;-75
2022/06/03 00:45:38;;;;;;;;;;;;;;;8.86;73.03;101216.63;5007248;28;20029;-75
2022/06/03 00:48:12;;;;;;;5.82;4.07;;;;;;;8.83;73.03;101221.84;5005887;28;19936;-75
2022/06/03 00:50:59;;;;;;;6.95;3.95;;;;;;;8.85;72.00;101225.38;5001981;28;20040;-75
2022/06/03 00:53:44;;;;;;;5.30;4.03;;;;;;;8.91;71.10;101215.81;5018740;28;20045;-75
2022/06/03 00:56:34;;;;;;;4.28;3.28;;;;;;;8.92;71.64;101219.34;5002462;28;20041;-75
2022/06/03 00:59:29;;;;;;;4.75;3.75;;;;;;;8.80;71.07;101216.53;5010864;28;20029;-75
2022/06/03 01:02:14;;;;;;;5.35;3.80;;;;;;;8.67;71.91;101221.69;5003169;28;20038;-75
2022/06/03 01:04:58;;;;;;;5.82;4.20;;;;;;;8.61;72.08;101211.06;5003924;28;20046;-75
2022/06/03 01:07:23;;;;;;;5.07;3.60;;;;;;;8.55;72.88;101214.50;5006417;28;20045;-75
2022/06/03 01:10:12;;;;;;;8.32;4.72;;;;;;;8.56;73.39;101216.25;5002885;28;20042;-75
2022/06/03 01:12:57;;;;;;;6.13;4.70;;;;;;;8.55;72.92;101205.72;5002254;28;20579;-75
2022/06/03 01:15:38;;;;;;;6.78;4.38;;;;;;;8.47;72.81;101210.88;5003230;28;20042;-75
2022/06/03 01:18:12;;;;;;;5.80;4.82;;;;;;;8.37;73.97;101210.72;5004531;28;20049;-75
2022/06/03 01:21:14;;;;;;;5.60;3.92;;;;;;;8.44;73.62;101210.84;5001669;28;20050;-75
2022/06/03 01:24:08;;;;;;;5.45;4.10;;;;;;;8.35;74.16;101208.91;5002734;28;20038;-75
2022/06/03 01:27:31;;;;;;;5.85;4.55;;;;;;;8.25;74.32;101199.16;5004672;28;20120;-75
2022/06/03 01:30:10;;;;;;;6.72;4.88;;;;;;;8.24;74.23;101202.63;4988155;28;20050;-75
2022/06/03 01:32:41;;;;;;;5.88;4.13;;;;;;;8.21;74.82;101199.09;5003370;28;20077;-75
2022/06/03 01:35:42;;;;;;;5.20;4.07;;;;;;;8.22;74.82;101196.47;5003102;28;20049;-75
2022/06/03 01:38:43;;;;;;;6.38;4.75;;;;;;;8.16;75.73;101195.50;5002854;28;20045;-75
2022/06/03 01:41:43;;;;;;;5.03;3.90;;;;;;;8.19;75.43;101201.69;5003764;28;20038;-75
2022/06/03 01:44:44;;;;;;;4.43;3.60;;;;;;;8.24;75.89;101200.00;5005555;28;20394;-75
2022/06/03 01:47:59;;;;;;;5.90;4.57;;;;;;;8.23;74.23;101193.00;5003316;28;20081;-75
2022/06/03 01:51:02;;;;;;;5.70;4.35;;;;;;;8.15;74.04;101191.09;4999169;28;20050;-75
2022/06/03 01:53:42;;;;;;;;;;;;;;;8.10;74.79;101196.31;5005309;28;20029;-75
2022/06/03 01:56:30;;;;;;;4.97;3.92;;;;;;;8.06;72.89;101192.75;5003672;28;20072;-75
2022/06/03 01:59:32;;;;;;;6.40;4.28;;;;;;;8.02;73.72;101182.19;5007762;28;20381;-74
2022/06/03 02:01:57;;;;;;;5.65;4.25;;;;;;;8.00;73.29;101186.53;5004403;28;20034;-75
2022/06/03 02:04:54;;;;;;;5.38;4.00;;;;;;;7.93;74.96;101182.03;5002057;28;20049;-75
2022/06/03 02:07:41;;;;;;;5.40;4.10;;;;;;;7.95;74.51;101183.81;5002391;28;20501;-76
2022/06/03 02:10:36;;;;;;;5.72;4.00;;;;;;;8.01;75.67;101191.78;5017766;28;20472;-75
2022/06/03 02:13:17;;;;;;;6.28;5.20;;;;;;;7.98;77.44;101185.59;5002656;28;20050;-75
2022/06/03 02:16:23;;;;;;;7.40;4.65;;;;;;;7.99;76.77;101187.38;5001987;28;20030;-75
2022/06/03 02:19:11;;;;;;;5.85;4.05;;;;;;;7.95;74.78;101193.44;5003861;28;20064;-76
2022/06/03 02:22:23;;;;;;;8.90;4.22;;;;;;;7.85;75.46;101182.78;4999977;28;20042;-75
2022/06/03 02:25:05;;;;;;;5.50;4.60;;;;;;;7.90;76.25;101183.75;5002959;28;20046;-75
2022/06/03 02:27:36;;;;;;;;;;;;;;;7.89;76.77;101184.63;5002410;28;20046;-75
2022/06/03 02:30:26;;;;;;;4.72;3.50;;;;;;;7.87;75.47;101191.59;5002911;28;19920;-75
2022/06/03 02:33:19;;;;;;;5.28;3.97;;;;;;;7.86;75.20;101195.09;5017994;28;20038;-75
2022/06/03 02:35:47;;;;;;;5.85;4.10;;;;;;;7.81;75.03;101188.88;5002917;28;20038;-75
2022/06/03 02:38:46;;;;;;;7.22;4.95;;;;;;;7.78;74.89;101193.19;5001088;28;20058;-75
2022/06/03 02:41:21;;;;;;;6.63;5.25;;;;;;;7.72;76.49;101188.72;5001507;28;20030;-75
2022/06/03 02:44:05;;;;;;;4.80;3.80;;;;;;;7.66;76.53;101189.50;5006176;28;20037;-75
2022/06/03 02:47:06;;;;;;;4.57;3.70;;;;;;;7.64;76.33;101185.09;5003072;28;20493;-75
2022/06/03 02:49:49;;;;;;;4.82;3.70;;;;;;;7.58;76.41;101190.25;5016590;28;20038;-75
2022/06/03 02:52:17;;;;;;;5.30;4.45;;;;;;;7.55;77.21;101190.19;5002882;28;20071;-74
2022/06/03 02:55:18;;;;;;;5.32;4.20;;;;;;;7.59;76.87;101190.25;5000938;28;20042;-75
2022/06/03 02:58:05;;;;;;;5.38;4.20;;;;;;;7.49;76.68;101192.69;5005963;28;20520;-75
2022/06/03 03:00:43;;;;;;;5.93;4.93;;;;;;;7.41;78.30;101201.34;5004090;28;20037;-75
2022/06/03 03:03:35;;;;;;;6.25;5.28;;;;;;;7.41;79.08;101198.72;5003582;28;20042;-75
2022/06/03 03:06:24;;;;;;;7.38;5.20;;;;;;;7.49;79.26;101205.84;5009493;28;20030;-75
2022/06/03 03:09:08;;;;;;;5.60;4.68;;;;;;;7.61;77.36;101195.53;5003486;28;20482;-75
2022/06/03 03:12:11;;;;;;;5.60;4.60;;;;;;;7.66;76.64;101186.88;5000432;28;20065;-75
2022/06/03 03:14:53;;;;;;;5.03;3.97;;;;;;;7.71;76.11;101191.34;5003670;28;20080;-75
2022/06/03 03:17:42;;;;;;;7.95;5.25;;;;;;;7.68;76.87;101192.16;5000790;28;20030;-75
2022/06/03 03:20:44;;;;;;;6.15;4.13;;;;;;;7.75;76.55;101194.00;5019012;28;20401;-75
2022/06/03 03:23:50;;;;;;;9.30;4.25;;;;;;;7.83;76.38;101192.41;5004358;28;20042;-75
2022/06/03 03:26:28;;;;;;;6.68;4.63;;;;;;;7.90;75.43;101194.25;4957968;28;20042;-75
2022/06/03 03:28:56;;;;;;;6.43;5.53;;;;;;;7.95;75.99;101199.59;5003632;28;20045;-75
2022/06/03 03:31:45;;;;;;;7.97;5.03;;;;;;;8.00;76.37;101197.03;4999716;28;20112;-75
2022/06/03 03:34:28;;;;;;;8.43;4.97;;;;;;;8.03;75.66;101202.34;5007870;28;20049;-75
2022/06/03 03:37:28;;;;;;;6.15;4.47;;;;;;;8.01;75.32;101206.69;5017411;28;20046;-75
2022/06/03 03:40:30;;;;;;;6.28;4.40;;;;;;;8.02;75.54;101211.97;5006859;28;20049;-74
2022/06/03 03:43:31;;;;;;;6.15;4.80;;;;;;;8.08;76.46;101206.78;5016527;28;20069;-75
2022/06/03 03:46:34;;;;;;;6.93;5.10;;;;;;;8.19;76.23;101204.31;5006677;28;20056;-75
2022/06/03 03:49:27;;;;;;;7.45;4.22;;;;;;;8.30;76.90;101205.34;5006222;28;20551;-76
2022/06/03 03:52:17;;;;;;;7.60;5.95;;;;;;;8.42;76.60;101198.53;5002813;28;20038;-75
2022/06/03 03:54:55;;;;;;;12.40;8.43;;;;;;;8.57;76.24;101204.00;5017459;28;20045;-75
2022/06/03 03:57:40;;;;;;;12.82;8.75;;;;;;;8.72;76.09;101201.56;5000183;28;20057;-75
2022/06/03 04:00:17;;;;;;;22.10;10.25;;;;;;;8.83;75.78;101201.69;5001292;28;20038;-75
2022/06/03 04:03:01;;;;;;;18.75;9.93;;;;;;;8.95;75.89;101195.66;5005540;28;20066;-75
2022/06/03 04:05:54;;;;;;;11.27;7.57;;;;;;;9.10;76.19;101206.38;5001153;28;20100;-75
2022/06/03 04:08:50;;;;;;;7.78;6.60;;;;;;;9.23;75.19;101212.66;5001494;28;20547;-75
2022/06/03 04:11:40;;;;;;;9.65;6.75;;;;;;;9.30;75.28;101206.59;5000318;28;20045;-75
2022/06/03 04:14:32;;;;;;;8.77;7.90;;;;;;;9.38;75.19;101211.94;4999582;28;20408;-76
2022/06/03 04:17:28;;;;;;;8.88;6.95;;;;;;;9.48;74.88;101215.50;4999305;28;20046;-75
2022/06/03 04:20:11;;;;;;;8.65;7.45;;;;;;;9.58;74.79;101220.88;5005865;28;20033;-76
2022/06/03 04:23:06;;;;;;;8.40;7.07;;;;;;;9.71;74.23;101211.34;5001481;28;20504;-75
2022/06/03 04:26:02;;;;;;;7.97;5.70;;;;;;;9.80;73.66;101211.41;5002819;28;20504;-75
2022/06/03 04:28:53;;;;;;;7.65;5.00;;;;;;;9.83;73.50;101215.84;5000502;28;20404;-75
2022/06/03 04:31:46;;;;;;;7.20;6.25;;;;;;;9.94;73.74;101206.25;4996768;28;20038;-76
2022/06/03 04:34:29;;;;;;;;;;;;;;;10.07;74.02;101207.22;4998080;28;20117;-76
2022/06/03 04:37:26;;;;;;;9.98;8.30;;;;;;;10.23;73.38;101205.56;5003078;28;20344;-75
2022/06/03 04:40:13;;;;;;;9.93;6.53;;;;;;;10.37;72.68;101203.91;5005413;28;20045;-75
2022/06/03 04:43:13;;;;;;;6.20;5.32;;;;;;;10.49;72.21;101192.53;5002029;28;20076;-75
2022/06/03 04:45:44;;;;;;;5.35;4.47;;;;;;;10.64;71.68;101194.38;5002599;28;20045;-75
2022/06/03 04:48:39;;;;;;;5.38;4.82;;;;;;;10.75;71.01;101192.66;4999273;28;20037;-76
2022/06/03 04:51:27;;;;;;;7.10;6.40;;;;;;;10.93;70.79;101205.91;5000463;28;20084;-76
2022/06/03 04:54:14;;;;;;;8.38;7.25;;;;;;;11.11;69.96;101212.13;5005219;28;20046;-75
2022/06/03 04:57:10;;;;;;;6.88;6.18;;;;;;;11.26;69.66;101198.94;5005779;28;20113;-76
2022/06/03 05:00:03;;;;;;;8.60;6.85;;;;;;;11.38;69.61;101206.88;5011029;28;20037;-76
2022/06/03 05:02:53;;;;;;;7.13;6.18;;;;;;;11.54;69.51;101214.84;5006663;28;20038;-76
2022/06/03 05:05:54;;;;;;;7.90;6.70;;;;;;;11.67;69.05;101213.97;5009176;28;20036;-76
2022/06/03 05:08:54;;;;;;;8.65;7.38;;;;;;;11.86;69.02;101212.22;5005963;28;20152;-75
2022/06/03 05:11:54;;;;;;;9.15;7.20;;;;;;;12.02;68.31;101213.97;5006685;28;20030;-76
2022/06/03 05:14:49;;;;;;;8.45;6.70;;;;;;;12.17;68.66;101207.78;5002279;28;20034;-76
2022/06/03 05:17:32;;;;;;;9.73;8.18;;;;;;;12.31;68.68;101207.75;5007744;28;20128;-76
2022/06/03 05:20:21;;;;;;;9.52;8.55;;;;;;;12.46;68.30;101204.19;5002375;28;20484;-76
2022/06/03 05:23:29;;;;;;;8.13;7.07;;;;;;;12.57;68.44;101197.06;5004163;28;20120;-75
2022/06/03 05:26:22;;;;;;;9.07;7.75;;;;;;;12.75;67.70;101201.41;5008794;28;20030;-76
2022/06/03 05:29:17;;;;;;;9.98;7.78;;;;;;;12.89;67.24;101191.66;5005325;28;20053;-75
2022/06/03 05:32:29;;;;;;;8.55;7.75;;;;;;;13.06;66.94;101195.97;5002543;28;20092;-75
2022/06/03 05:35:21;;;;;;;8.95;6.90;;;;;;;13.25;66.67;101186.13;5007033;28;20065;-76
2022/06/03 05:38:32;;;;;;;13.02;11.63;;;;;;;13.41;66.18;101185.16;5004557;28;20091;-76
2022/06/03 05:44:20;;;;;;;6.82;5.47;;;;;;;13.68;65.66;101185.84;5002577;28;20042;-76
2022/06/03 05:47:06;;;;;;;6.97;6.00;;;;;;;13.86;64.86;101185.69;5001934;28;20044;-76
2022/06/03 05:49:44;;;;;;;6.80;4.78;;;;;;;13.93;64.30;101184.72;5004063;28;20038;-76
2022/06/03 05:52:32;;;;;;;8.90;8.00;;;;;;;14.10;64.17;101179.25;5001006;28;20034;-76
2022/06/03 05:55:26;;;;;;;9.57;7.30;;;;;;;14.30;63.30;101181.69;5018046;28;20409;-76
2022/06/03 05:58:06;;;;;;;12.07;8.02;;;;;;;14.48;63.04;101176.16;5003014;28;20038;-76
2022/06/03 06:00:47;;;;;;;12.90;11.43;;;;;;;14.65;62.33;101172.47;5001974;28;20482;-76
2022/06/03 06:03:20;;;;;;;6.80;6.10;;;;;;;14.81;61.33;101173.16;5008070;28;20038;-76
2022/06/03 06:06:15;;;;;;;11.38;10.25;;;;;;;14.97;61.31;101171.16;5004757;28;20134;-76
2022/06/03 06:09:16;;;;;;;8.65;7.55;;;;;;;15.12;60.59;101173.59;5008383;28;20046;-76
2022/06/03 06:12:00;;;;;;;15.43;12.48;;;;;;;15.23;59.20;101163.66;5007774;28;20093;-76
2022/06/03 06:14:43;;;;;;;13.70;12.30;;;;;;;15.40;59.33;101163.38;5008480;28;20157;-76
2022/06/03 06:17:38;;;;;;;14.35;12.85;;;;;;;15.55;58.19;101162.28;5007066;28;20065;-76
2022/06/03 06:20:38;;;;;;;10.75;9.65;;;;;;;15.71;57.38;101153.16;5003517;28;20030;-76
2022/06/03 06:23:18;;;;;;;8.98;8.05;;;;;;;15.84;57.27;101148.50;5004325;28;20034;-76
2022/06/03 06:26:20;;;;;;;9.63;8.63;;;;;;;16.01;57.43;101142.88;5003738;28;20040;-76
2022/06/03 06:28:52;;;;;;;9.52;7.20;;;;;;;16.16;56.84;101139.88;5004788;28;20129;-76
2022/06/03 06:32:01;;;;;;;5.22;4.55;;;;;;;16.27;55.75;101131.72;5003290;28;20029;-76
2022/06/03 06:35:00;;;;;;;6.22;5.25;;;;;;;16.47;55.59;101133.09;5005764;28;20497;-76
2022/06/03 06:37:53;;;;;;;10.20;7.50;;;;;;;16.64;54.37;101121.16;5003851;28;20046;-76
2022/06/03 06:40:45;;;;;;;4.68;3.33;;;;;;;16.77;53.86;101116.47;5007350;28;20125;-76
2022/06/03 06:43:22;;;;;;;6.93;4.80;;;;;;;16.96;52.84;101114.25;5003901;28;20057;-76
2022/06/03 06:46:02;;;;;;;7.32;5.25;;;;;;;17.13;52.26;101113.84;5005595;28;20516;-76
2022/06/03 06:48:45;;;;;;;3.67;2.63;;;;;;;17.26;51.18;101112.63;5000434;28;20136;-76
2022/06/03 06:51:25;;;;;;;4.65;2.40;;;;;;;17.41;50.77;101106.03;5016371;28;20895;-77
2022/06/03 06:53:58;;;;;;;4.75;3.10;;;;;;;17.55;50.58;101105.69;5003941;28;20042;-76
2022/06/03 06:56:35;;;;;;;5.45;4.45;;;;;;;17.71;50.08;101107.06;5000707;28;20069;-76
2022/06/03 06:59:07;;;;;;;5.00;3.45;;;;;;;17.85;48.95;101106.72;5000028;28;20033;-76
2022/06/03 07:01:48;;;;;;;4.90;2.45;;;;;;;17.99;47.51;101100.13;5005667;28;20042;-76
2022/06/03 07:04:26;;;;;;;2.97;1.75;;;;;;;18.04;46.70;101103.53;5004647;28;20038;-76
2022/06/03 07:07:00;;;;;;;5.10;2.67;;;;;;;18.20;47.56;101094.16;4988894;28;20465;-76
2022/06/03 07:09:52;;;;;;;3.55;1.58;;;;;;;18.31;46.11;101101.84;5001424;28;20038;-76
2022/06/03 07:12:21;;;;;;;6.05;4.30;;;;;;;18.48;47.05;101101.38;5001633;28;20177;-76
2022/06/03 07:15:06;;;;;;;5.15;4.05;;;;;;;18.68;46.02;101090.06;5000081;28;20065;-76
2022/06/03 07:21:01;;;;;;;4.93;2.55;;;;;;;18.99;45.06;101084.66;5000013;28;20034;-77
2022/06/03 07:23:44;;;;;;;3.35;1.73;;;;;;;19.11;44.42;101075.38;5004737;28;20041;-76
2022/06/03 07:26:14;;;;;;;;;;;;;;;19.17;44.82;101075.16;4999757;28;20409;-77
2022/06/03 07:28:45;;;;;;;3.75;2.13;;;;;;;19.31;44.43;101067.56;5001355;28;20304;-76
2022/06/03 07:31:20;;;;;;;2.80;1.80;;;;;;;19.42;43.22;101061.84;5004854;28;20072;-76
2022/06/03 07:33:57;;;;;;;6.22;3.17;;;;;;;19.53;43.91;101054.31;5001846;28;20046;-76
2022/06/03 07:36:46;;;;;;;6.50;3.90;;;;;;;19.72;43.84;101053.69;5002135;28;20408;-76
2022/06/03 07:39:39;;;;;;;5.63;3.20;;;;;;;19.79;42.11;101039.16;5007486;28;20105;-77
2022/06/03 07:42:16;;;;;;;4.18;3.28;;;;;;;20.02;42.19;101051.72;5003844;28;20050;-76
2022/06/03 07:44:48;;;;;;;6.88;3.55;;;;;;;20.17;42.41;101050.25;4998238;28;20030;-76
2022/06/03 07:47:15;;;;;;;5.88;3.30;;;;;;;20.28;41.13;101042.69;5002071;28;20164;-76
2022/06/03 07:49:51;;;;;;;4.05;2.75;;;;;;;20.38;41.23;101044.06;5003545;28;20092;-76
2022/06/03 07:52:46;;;;;;;5.43;3.28;;;;;;;20.48;40.76;101037.41;4995539;28;20044;-76
2022/06/03 07:55:20;;;;;;;3.65;2.78;;;;;;;20.60;40.50;101032.53;5004628;28;20037;-76
2022/06/03 07:57:52;;;;;;;5.80;2.80;;;;;;;20.70;40.56;101036.59;5005774;28;20066;-76
2022/06/03 08:00:20;;;;;;;6.00;3.33;;;;;;;20.84;40.65;101038.72;5003766;28;20042;-76
2022/06/03 08:02:45;;;;;;;4.68;2.22;;;;;;;20.95;40.04;101036.47;4998956;28;20035;-76
2022/06/03 08:05:14;;;;;;;3.65;2.50;;;;;;;21.05;39.79;101032.47;5004496;28;20030;-77
2022/06/03 08:13:17;;;;;;;4.13;2.15;;;;;;;21.39;38.54;101023.88;4999067;28;20034;-77
2022/06/03 08:16:05;;;;;;;3.78;2.60;;;;;;;21.45;37.70;101023.59;4995918;28;20038;-77
2022/06/03 08:18:40;;;;;;;5.47;2.60;;;;;;;21.58;37.48;101025.75;5003253;28;20088;-76
2022/06/03 08:21:09;;;;;;;3.75;2.30;;;;;;;21.73;37.85;101025.09;5004416;28;20527;-76
2022/06/03 08:23:35;;;;;;;3.83;2.20;;;;;;;21.84;37.44;101024.59;5000374;28;20524;-76
2022/06/03 08:26:07;;;;;;;3.47;1.85;;;;;;;21.88;36.58;101015.47;5001740;28;20037;-77
2022/06/03 08:28:37;;;;;;;4.53;2.05;;;;;;;21.92;36.84;101021.56;5002173;28;20038;-77
2022/06/03 08:31:05;;;;;;;4.63;3.13;;;;;;;22.04;37.00;101018.31;4998807;28;20058;-76
2022/06/03 08:33:31;;;;;;;2.80;1.88;;;;;;;22.17;37.23;101024.88;5002125;28;20038;-76
2022/06/03 08:35:56;;;;;;;4.47;2.60;;;;;;;22.35;36.87;101020.47;5005033;28;20039;-76
2022/06/03 08:38:39;;;;;;;3.13;2.20;;;;;;;22.51;36.42;101026.88;5003279;28;20041;-76
2022/06/03 08:41:38;;;;;;;5.85;2.58;;;;;;;22.65;36.28;101011.88;5002628;28;20038;-76
2022/06/03 08:44:19;;;;;;;7.35;3.60;;;;;;;22.70;35.63;101010.69;5006034;28;20037;-77
2022/06/03 08:47:06;;;;;;;5.85;3.30;;;;;;;22.70;36.34;101013.38;5002905;28;20072;-76
2022/06/03 08:49:56;;;;;;;6.25;3.42;;;;;;;22.90;35.99;101014.25;5009686;28;20036;-76
2022/06/03 08:52:36;;;;;;;5.00;3.42;;;;;;;23.03;35.80;101007.31;5005853;28;20391;-77
2022/06/03 08:55:16;;;;;;;6.07;3.47;;;;;;;23.17;35.91;101010.16;5003380;28;20481;-77
2022/06/03 08:57:47;;;;;;;6.38;2.63;;;;;;;23.25;34.47;101011.59;5003542;28;20072;-77
2022/06/03 09:00:16;;;;;;;3.30;2.40;;;;;;;23.35;35.14;101004.81;5003045;28;20378;-76
2022/06/03 09:02:54;;;;;;;5.57;2.58;;;;;;;23.43;35.18;100999.00;5003186;28;20045;-76
2022/06/03 09:05:37;;;;;;;3.92;1.85;;;;;;;23.43;34.39;100999.88;5006517;28;20054;-76
2022/06/03 09:08:20;;;;;;;3.40;2.10;;;;;;;23.43;34.07;100999.88;5005784;28;20488;-76
2022/06/03 09:11:00;;;;;;;11.68;4.15;;;;;;;23.57;34.38;100997.31;5002807;28;20034;-76
2022/06/03 09:13:37;;;;;;;3.83;2.13;;;;;;;23.73;33.88;101001.91;5003384;28;20030;-77
2022/06/03 09:16:05;;;;;;;8.63;2.88;;;;;;;23.89;34.44;100994.75;5003286;28;20504;-77
2022/06/03 09:18:39;;;;;;;4.55;2.70;;;;;;;23.94;33.93;101000.75;5005969;28;20038;-77
2022/06/03 09:21:10;;;;;;;3.65;2.30;;;;;;;24.04;33.57;100991.22;5002042;28;20042;-77
2022/06/03 09:23:42;;;;;;;8.20;4.53;;;;;;;24.17;33.57;100985.16;5005418;28;20030;-77
2022/06/03 09:26:20;;;;;;;3.55;2.70;;;;;;;24.29;34.11;100989.88;5003249;28;20440;-76
2022/06/03 09:28:47;;;;;;;4.63;2.33;;;;;;;24.36;33.80;100980.44;5003010;28;20038;-76
2022/06/03 09:31:14;;;;;;;2.92;2.13;;;;;;;24.44;33.01;100978.25;5007938;28;20041;-76
2022/06/03 09:33:44;;;;;;;3.83;1.50;;;;;;;24.41;32.96;100989.16;5004424;28;20053;-77
2022/06/03 09:36:14;;;;;;;3.35;1.80;;;;;;;24.52;33.33;100969.69;5004168;28;20109;-76
2022/06/03 09:38:47;;;;;;;5.95;3.38;;;;;;;24.66;33.30;100977.88;5005230;28;20579;-77
2022/06/03 09:41:14;;;;;;;1.52;0.98;;;;;;;24.56;32.37;100967.69;5002551;28;20034;-76
2022/06/03 09:43:46;;;;;;;6.13;3.22;;;;;;;24.62;32.78;100965.50;5004342;28;20034;-76
2022/06/03 09:46:14;;;;;;;4.95;3.13;;;;;;;24.78;33.13;100970.88;5010402;28;20520;-76
2022/06/03 09:48:41;;;;;;;5.43;2.72;;;;;;;24.79;31.90;100967.22;5001950;28;20567;-77
2022/06/03 09:51:10;;;;;;;5.47;2.53;;;;;;;24.89;32.75;100964.88;5003970;28;20038;-77
2022/06/03 09:53:40;;;;;;;4.60;2.90;;;;;;;24.99;32.39;100962.47;5004305;28;20485;-76
2022/06/03 09:56:16;;;;;;;3.70;1.70;;;;;;;25.17;31.88;100956.00;5002246;28;20505;-77
2022/06/03 09:58:43;;;;;;;4.40;2.75;;;;;;;25.29;31.98;100959.81;5003222;28;20034;-77
2022/06/03 10:01:09;;;;;;;5.55;2.80;;;;;;;25.43;31.90;100954.41;5002612;28;20034;-76
2022/06/03 10:03:35;;;;;;;2.25;1.20;;;;;;;25.42;31.31;100951.81;5003738;28;20407;-76
2022/06/03 10:06:00;;;;;;;1.73;0.80;;;;;;;25.44;31.37;100952.56;5003318;28;20038;-76
2022/06/03 10:12:48;;;;;;;4.60;2.55;;;;;;;25.58;31.56;100955.31;5006795;28;20039;-77
2022/06/03 10:14:15;;;;;;;2.75;1.10;;;;;;;25.67;30.68;100949.31;4989072;28;20505;-76
2022/06/03 10:16:42;;;;;;;4.65;1.90;;;;;;;25.80;31.34;100950.25;5003907;28;20034;-76
2022/06/03 10:19:07;;;;;;;4.10;1.70;;;;;;;25.93;31.02;100944.97;4998086;28;20404;-76
2022/06/03 10:21:33;;;;;;;1.55;0.80;;;;;;;25.96;30.55;100936.69;5000852;28;20036;-76
2022/06/03 10:24:02;;;;;;;2.97;1.50;;;;;;;25.89;30.61;100932.66;5010738;28;20046;-76
2022/06/03 10:26:29;;;;;;;4.88;3.30;;;;;;;25.89;31.15;100920.97;5005386;28;20026;-76
2022/06/03 10:28:56;;;;;;;4.50;1.85;;;;;;;26.11;31.37;100931.25;5015317;28;20042;-76
2022/06/03 10:31:31;;;;;;;3.85;1.80;;;;;;;26.18;30.01;100928.06;5003695;28;20400;-76
2022/06/03 10:34:02;;;;;;;4.53;1.98;;;;;;;26.14;30.54;100926.50;5002102;28;20038;-76
2022/06/03 10:36:33;;;;;;;;;;;;;;;26.01;30.29;100931.84;5002239;28;20042;-76
2022/06/03 10:38:58;;;;;;;2.20;1.10;;;;;;;26.24;30.43;100918.66;5005377;28;20375;-77
2022/06/03 10:41:44;;;;;;;2.72;1.10;;;;;;;26.37;30.15;100913.31;5007932;28;20041;-76
2022/06/03 10:44:24;;;;;;;3.60;2.40;;;;;;;26.51;30.28;100913.25;5001094;28;20034;-76
2022/06/03 10:46:54;;;;;;;4.50;2.17;;;;;;;26.75;30.20;100915.31;4999003;28;20048;-77
2022/06/03 10:49:21;;;;;;;4.72;2.72;;;;;;;26.87;30.34;100914.47;5006169;28;20036;-76
2022/06/03 11:02:45;;;;;;;4.30;2.63;;;;;;;27.06;29.91;100893.28;5003599;28;20034;-77
2022/06/03 11:05:25;;;;;;;3.20;1.48;;;;;;;27.29;29.37;100888.13;5002440;28;20408;-77
2022/06/03 11:08:08;;;;;;;3.67;1.33;;;;;;;27.35;28.54;100879.53;5003358;28;20038;-77
2022/06/03 11:10:40;;;;;;;5.57;2.58;;;;;;;27.26;29.87;100875.66;5002692;28;20049;-77
2022/06/03 11:13:10;;;;;;;2.40;1.30;;;;;;;27.32;28.86;100877.91;5001128;28;20042;-77
2022/06/03 11:15:39;;;;;;;5.10;2.35;;;;;;;27.53;29.01;100864.66;5000534;28;20732;-77
2022/06/03 11:18:15;;;;;;;3.75;2.38;;;;;;;27.78;29.31;100854.78;4999602;28;20037;-77
2022/06/03 11:20:41;;;;;;;2.80;1.27;;;;;;;27.88;28.62;100838.72;5010106;28;20046;-78
2022/06/03 11:23:08;;;;;;;6.18;3.17;;;;;;;28.09;29.09;100842.56;5003419;28;20484;-77
2022/06/03 11:25:38;;;;;;;6.03;2.92;;;;;;;28.32;28.49;100840.81;5004067;28;20093;-77
2022/06/03 11:28:23;;;;;;;6.25;3.30;;;;;;;28.47;28.33;100840.66;5004970;28;20045;-77
2022/06/03 11:30:53;;;;;;;5.82;3.45;;;;;;;28.80;27.81;100834.50;5002916;28;20535;-77
2022/06/03 11:33:36;;;;;;;4.07;2.42;;;;;;;29.17;27.09;100835.19;5003133;28;20049;-77
2022/06/03 11:36:10;;;;;;;4.78;3.38;;;;;;;29.56;26.93;100819.38;5003385;28;20038;-78
2022/06/03 11:39:02;;;;;;;2.95;1.90;;;;;;;29.73;25.60;100814.44;5006735;28;20065;-77
2022/06/03 11:41:32;;;;;;;5.20;2.10;;;;;;;29.63;25.43;100806.13;4999544;28;20052;-78
2022/06/03 11:44:01;;;;;;;5.97;3.60;;;;;;;29.72;26.37;100799.13;5003200;28;20029;-77
2022/06/03 11:46:40;;;;;;;3.38;1.90;;;;;;;30.06;25.27;100795.31;5007603;28;20034;-77
2022/06/03 11:49:07;;;;;;;6.72;3.53;;;;;;;30.38;25.06;100790.88;5004556;28;20034;-77
2022/06/03 11:51:33;;;;;;;3.72;2.45;;;;;;;30.57;25.09;100780.13;5004971;28;20038;-77
2022/06/03 11:53:59;;;;;;;4.70;3.05;;;;;;;31.06;25.37;100789.50;5006299;28;20035;-77
2022/06/03 11:56:28;;;;;;;4.00;2.13;;;;;;;31.52;24.57;100773.63;5005426;28;20037;-78
2022/06/03 11:58:56;;;;;;;2.83;2.10;;;;;;;31.54;24.05;100777.94;5008067;28;20038;-78
2022/06/03 12:01:29;;;;;;;3.55;2.20;;;;;;;31.80;23.14;100769.25;5003608;28;20032;-78
2022/06/03 12:03:59;;;;;;;3.38;1.30;;;;;;;31.62;23.00;100769.06;5003103;28;20045;-78
2022/06/03 12:06:40;;;;;;;3.55;2.55;;;;;;;31.48;23.45;100766.75;5003378;28;20187;-78
2022/06/03 12:09:34;;;;;;;4.63;1.90;;;;;;;31.88;21.73;100764.78;5003784;28;20049;-78
2022/06/03 12:15:31;;;;;;;3.63;2.10;;;;;;;32.55;22.27;100740.41;5002904;28;20038;-77
2022/06/03 12:18:05;;;;;;;3.15;1.98;;;;;;;32.59;21.30;100744.56;5021053;28;20040;-78
2022/06/03 12:20:30;;;;;;;4.88;2.30;;;;;;;33.08;21.58;100744.44;5005484;28;20030;-78
2022/06/03 12:22:57;;;;;;;5.93;3.60;;;;;;;33.60;21.66;100740.16;5005720;28;20039;-78
2022/06/03 12:25:31;;;;;;;3.33;2.38;;;;;;;33.82;20.27;100733.41;5005173;28;20287;-78
2022/06/03 12:28:00;;;;;;;2.80;1.55;;;;;;;33.41;20.69;100723.84;5004837;28;20034;-78
2022/06/03 12:30:33;;;;;;;4.25;3.15;;;;;;;33.21;21.59;100723.09;5000998;28;20054;-78
2022/06/03 12:33:10;;;;;;;6.00;3.17;;;;;;;32.76;21.71;100718.34;5003110;28;20034;-78
2022/06/03 12:35:41;;;;;;;5.68;4.03;;;;;;;33.55;21.38;100722.50;5004351;28;20489;-77
2022/06/03 12:38:39;;;;;;;2.75;1.50;;;;;;;33.71;20.71;100730.03;5014665;28;20508;-77
2022/06/03 12:41:05;;;;;;;3.63;2.40;;;;;;;33.98;20.75;100720.88;5002095;28;20054;-77
2022/06/03 12:43:46;;;;;;;4.80;3.63;;;;;;;34.65;19.65;100724.03;5002569;28;20038;-78
2022/06/03 12:46:37;;;;;;;4.93;2.90;;;;;;;35.21;20.07;100724.53;5004797;28;20034;-78
2022/06/03 12:49:04;;;;;;;7.80;4.90;;;;;;;35.76;18.81;100710.31;5001791;28;20038;-77
2022/06/03 12:51:57;;;;;;;7.95;4.78;;;;;;;36.32;18.84;100716.91;5005222;28;20042;-78
2022/06/03 12:54:22;;;;;;;4.50;2.30;;;;;;;36.84;17.65;100707.41;5006443;28;20042;-78
2022/06/03 12:59:52;;;;;;;3.88;1.27;;;;;;;36.27;17.42;100705.56;5101160;27;20358;-77
2022/06/03 13:02:21;;;;;;;6.70;3.28;;;;;;;36.45;18.64;100702.63;5098127;28;20506;-76
2022/06/03 13:04:52;;;;;;;2.28;1.90;;;;;;;37.05;17.15;100682.94;5095621;28;20036;-76
2022/06/03 13:07:27;;;;;;;5.72;3.40;;;;;;;37.46;16.98;100685.44;5098832;28;20123;-76
2022/06/03 13:09:54;;;;;;;4.80;2.92;;;;;;;37.85;17.02;100673.50;5100317;28;20043;-76